createdAt,value
2019-01-09T00:02:29.641Z,3.94
2019-01-09T00:07:48.246Z,3.90
2019-01-09T00:13:06.836Z,3.84
2019-01-09T00:18:25.363Z,3.79
2019-01-09T00:23:43.994Z,3.76
2019-01-09T00:29:02.509Z,3.74
2019-01-09T00:34:21.116Z,3.69
2019-01-09T00:39:39.715Z,3.68
2019-01-09T00:44:58.329Z,3.70
2019-01-09T00:50:16.914Z,3.65
2019-01-09T00:55:35.530Z,3.68
2019-01-09T01:00:54.138Z,3.69
2019-01-09T01:06:52.566Z,3.67
2019-01-09T01:12:49.677Z,3.63
2019-01-09T01:18:48.044Z,3.59
2019-01-09T01:24:45.091Z,3.57
2019-01-09T01:30:43.456Z,3.56
2019-01-09T01:36:41.901Z,3.53
2019-01-09T01:42:38.954Z,3.57
2019-01-09T01:48:36.029Z,3.58
2019-01-09T01:54:33.083Z,3.57
2019-01-09T02:00:31.554Z,3.63
2019-01-09T02:06:29.942Z,3.58
2019-01-09T02:12:28.315Z,3.32
2019-01-09T02:18:26.698Z,3.04
2019-01-09T02:24:25.131Z,3.06
2019-01-09T02:30:22.173Z,3.12
2019-01-09T02:41:11.297Z,3.06
2019-01-09T02:46:29.903Z,3.00
2019-01-09T02:51:48.447Z,2.98
2019-01-09T02:57:07.048Z,3.02
2019-01-09T03:07:56.168Z,3.13
2019-01-09T03:13:14.767Z,3.14
2019-01-09T03:18:33.367Z,3.11
2019-01-09T03:23:51.966Z,3.11
2019-01-09T03:34:43.131Z,3.07
2019-01-09T03:40:01.769Z,3.00
2019-01-09T03:45:20.462Z,2.94
2019-01-09T03:56:09.511Z,2.93
2019-01-09T04:01:28.062Z,2.94
2019-01-09T04:06:46.599Z,2.97
2019-01-09T04:12:05.193Z,2.96
2019-01-09T04:17:24.072Z,2.88
2019-01-09T04:22:42.659Z,2.66
2019-01-09T04:28:01.184Z,2.65
2019-01-09T04:33:19.646Z,2.65
2019-01-09T04:38:38.111Z,2.64
2019-01-09T04:43:56.692Z,2.61
2019-01-09T04:49:15.146Z,2.64
2019-01-09T04:54:33.793Z,2.63
2019-01-09T04:59:52.254Z,2.71
2019-01-09T05:05:10.815Z,2.76
2019-01-09T05:10:29.347Z,2.76
2019-01-09T05:15:48.151Z,2.84
2019-01-09T05:21:06.682Z,2.66
2019-01-09T05:26:25.148Z,2.61
2019-01-09T05:31:43.615Z,2.41
2019-01-09T05:37:09.411Z,2.03
2019-01-09T05:42:22.389Z,1.34
2019-01-09T05:47:40.910Z,1.12
2019-01-09T05:53:18.720Z,1.17
2019-01-09T05:58:37.246Z,1.32
2019-01-09T06:03:55.709Z,1.27
2019-01-09T06:20:15.123Z,1.58
2019-01-09T06:25:33.755Z,1.84
2019-01-09T06:30:52.265Z,1.95
2019-01-09T06:36:10.804Z,1.98
2019-01-09T06:41:29.692Z,1.98
2019-01-09T06:46:48.545Z,2.11
2019-01-09T06:52:07.010Z,2.04
2019-01-09T06:57:25.552Z,2.04
2019-01-09T07:02:44.084Z,2.02
2019-01-09T07:08:02.550Z,2.07
2019-01-09T07:13:21.004Z,2.04
2019-01-09T07:18:39.468Z,2.04
2019-01-09T07:23:58.397Z,2.07
2019-01-09T07:29:16.940Z,2.05
2019-01-09T07:34:35.480Z,2.07
2019-01-09T07:39:53.973Z,2.00
2019-01-09T07:45:12.543Z,1.98
2019-01-09T07:56:24.542Z,1.96
2019-01-09T08:01:43.158Z,2.00
2019-01-09T08:07:01.678Z,2.01
2019-01-09T08:12:20.219Z,2.05
2019-01-09T08:29:04.407Z,2.07
2019-01-09T08:34:22.985Z,2.05
2019-01-09T08:39:41.519Z,2.03
2019-01-09T08:45:00.339Z,2.06
2019-01-09T08:50:18.816Z,2.09
2019-01-09T08:55:37.270Z,2.08
2019-01-09T09:06:28.237Z,2.13
2019-01-09T09:11:46.702Z,2.21
2019-01-09T09:22:37.739Z,2.27
2019-01-09T09:33:26.710Z,2.47
2019-01-09T09:38:45.358Z,2.50
2019-01-09T09:44:03.967Z,2.51
2019-01-09T09:49:22.564Z,2.58
2019-01-09T09:54:41.171Z,2.64
2019-01-09T09:59:59.775Z,2.74
2019-01-09T10:10:49.318Z,2.78
2019-01-09T10:16:07.865Z,2.87
2019-01-09T10:21:26.524Z,2.92
2019-01-09T10:26:45.057Z,2.91
2019-01-09T10:32:03.657Z,2.96
2019-01-09T10:37:22.250Z,2.92
2019-01-09T10:42:40.862Z,2.88
2019-01-09T10:47:59.464Z,2.87
2019-01-09T10:53:18.040Z,3.01
2019-01-09T11:04:07.627Z,3.15
2019-01-09T11:09:26.186Z,3.32
2019-01-09T11:14:44.762Z,3.39
2019-01-09T11:25:54.535Z,3.47
2019-01-09T11:31:13.068Z,3.53
2019-01-09T11:36:31.611Z,3.56
2019-01-09T11:41:50.136Z,3.60
2019-01-09T11:47:08.729Z,3.66
2019-01-09T11:52:27.175Z,3.82
2019-01-09T11:57:45.638Z,3.93
2019-01-09T12:03:04.241Z,3.95
2019-01-09T12:08:22.780Z,3.99
2019-01-09T12:13:41.241Z,3.97
2019-01-09T12:18:59.710Z,3.93
2019-01-09T12:24:37.580Z,3.88
2019-01-09T12:29:56.113Z,3.89
2019-01-09T12:35:14.720Z,4.04
2019-01-09T12:40:33.252Z,4.15
2019-01-09T12:45:51.782Z,4.21
2019-01-09T12:51:10.319Z,4.14
2019-01-09T12:56:28.783Z,4.11
2019-01-09T13:07:17.976Z,4.25
2019-01-09T13:12:36.520Z,4.19
2019-01-09T13:17:55.060Z,4.13
2019-01-09T13:23:13.816Z,4.10
2019-01-09T13:28:32.396Z,4.17
2019-01-09T13:33:50.791Z,4.14
2019-01-09T13:39:49.395Z,4.12
2019-01-09T13:45:47.777Z,4.03
2019-01-09T13:51:06.735Z,3.98
2019-01-09T13:56:25.199Z,4.00
2019-01-09T14:01:43.726Z,3.90
2019-01-09T14:07:02.275Z,3.95
2019-01-09T14:12:20.740Z,3.96
2019-01-09T14:17:39.204Z,3.97
2019-01-09T14:22:57.736Z,4.27
2019-01-09T14:28:16.341Z,4.30
2019-01-09T14:33:34.969Z,4.03
2019-01-09T14:38:53.505Z,3.98
2019-01-09T14:44:12.085Z,3.85
2019-01-09T14:49:57.905Z,3.83
2019-01-09T14:55:56.282Z,3.95
2019-01-09T15:01:14.747Z,3.82
2019-01-09T15:06:33.360Z,3.80
2019-01-09T15:11:51.961Z,3.75
2019-01-09T15:17:10.597Z,3.74
2019-01-09T15:22:29.125Z,3.67
2019-01-09T15:27:47.751Z,3.64
2019-01-09T15:33:06.346Z,3.59
2019-01-09T15:38:24.867Z,3.48
2019-01-09T15:43:43.644Z,3.44
2019-01-09T15:49:02.184Z,3.40
2019-01-09T15:54:20.712Z,3.35
2019-01-09T15:59:39.179Z,3.24
2019-01-09T16:04:57.671Z,3.12
2019-01-09T16:10:35.513Z,3.16
2019-01-09T16:15:53.968Z,3.13
2019-01-09T16:26:43.016Z,3.08
2019-01-09T16:32:01.477Z,3.02
2019-01-09T16:37:20.021Z,2.95
2019-01-09T16:42:38.496Z,2.96
2019-01-09T16:53:29.608Z,2.87
2019-01-09T16:58:48.215Z,2.88
2019-01-09T17:04:06.822Z,2.85
2019-01-09T17:09:25.284Z,2.84
2019-01-09T17:14:43.744Z,2.78
2019-01-09T17:20:02.280Z,2.78
2019-01-09T17:25:22.608Z,2.70
2019-01-09T17:36:13.721Z,2.61
2019-01-09T17:41:51.623Z,2.52
2019-01-09T17:47:10.084Z,2.44
2019-01-09T17:52:28.630Z,2.39
2019-01-09T18:03:19.754Z,2.36
2019-01-09T18:25:53.789Z,2.30
2019-01-09T18:31:52.165Z,2.22
2019-01-09T18:37:50.806Z,2.21
2019-01-09T18:43:49.173Z,2.25
2019-01-09T18:49:47.548Z,2.23
2019-01-09T18:55:45.898Z,2.27
2019-01-09T19:01:25.146Z,2.13
2019-01-09T19:06:43.752Z,2.14
2019-01-09T19:12:02.375Z,2.09
2019-01-09T19:17:20.978Z,2.14
2019-01-09T19:22:39.596Z,2.11
2019-01-09T19:27:59.928Z,2.06
2019-01-09T19:33:18.550Z,2.04
2019-01-09T19:38:37.165Z,1.92
2019-01-09T19:43:55.762Z,1.93
2019-01-09T19:49:14.365Z,1.76
2019-01-09T19:54:33.312Z,1.86
2019-01-09T20:06:03.908Z,1.76
2019-01-09T20:11:26.536Z,1.71
2019-01-09T20:16:43.065Z,1.67
2019-01-09T20:22:01.696Z,1.65
2019-01-09T20:27:20.286Z,1.63
2019-01-09T20:33:31.542Z,1.58
2019-01-09T20:38:50.207Z,1.52
2019-01-09T20:44:08.788Z,1.50
2019-01-09T20:49:27.348Z,1.56
2019-01-09T20:54:46.086Z,1.53
2019-01-09T21:00:44.781Z,1.47
2019-01-09T21:06:03.344Z,1.46
2019-01-09T21:11:21.931Z,1.41
2019-01-09T21:16:40.542Z,1.45
2019-01-09T21:21:59.095Z,1.44
2019-01-09T21:27:17.621Z,1.37
2019-01-09T21:32:36.228Z,1.36
2019-01-09T21:37:54.758Z,1.29
2019-01-09T21:43:32.637Z,1.38
2019-01-09T21:48:51.104Z,1.32
2019-01-09T21:54:09.565Z,1.12
2019-01-09T21:59:28.025Z,1.10
2019-01-09T22:05:06.185Z,1.14
2019-01-09T22:11:04.558Z,1.07
2019-01-09T22:16:23.028Z,1.17
2019-01-09T22:27:14.077Z,1.14
2019-01-09T22:32:32.695Z,1.15
2019-01-09T22:37:51.235Z,1.10
2019-01-09T22:43:09.856Z,1.20
2019-01-09T22:48:28.316Z,1.17
2019-01-09T22:53:46.845Z,1.09
2019-01-09T22:59:05.465Z,1.11
2019-01-09T23:04:24.136Z,1.12
2019-01-09T23:10:02.084Z,1.16
2019-01-09T23:15:20.615Z,1.01
2019-01-09T23:20:39.232Z,1.03
2019-01-09T23:25:58.054Z,1.15
2019-01-09T23:31:16.654Z,1.03
2019-01-09T23:36:35.353Z,0.96
2019-01-09T23:41:53.944Z,1.09
2019-01-09T23:47:12.480Z,1.03
2019-01-09T23:52:31.020Z,0.95
